sensor_id;sensor_type;location;lat;lon;timestamp;P1;durP1;ratioP1;P2;durP2;ratioP2
21601;SDS011;10963;50.934;4.668;2022-08-25T00:01:56;11.67;;;6.77;;
21601;SDS011;10963;50.934;4.668;2022-08-25T00:04:28;9.43;;;6.87;;
21601;SDS011;10963;50.934;4.668;2022-08-25T00:06:59;8.80;;;5.90;;
21601;SDS011;10963;50.934;4.668;2022-08-25T00:09:26;7.17;;;5.40;;
21601;SDS011;10963;50.934;4.668;2022-08-25T00:11:57;6.70;;;6.07;;
21601;SDS011;10963;50.934;4.668;2022-08-25T00:14:25;7.63;;;5.87;;
21601;SDS011;10963;50.934;4.668;2022-08-25T00:16:55;6.87;;;6.17;;
21601;SDS011;10963;50.934;4.668;2022-08-25T00:19:22;7.77;;;5.50;;
21601;SDS011;10963;50.934;4.668;2022-08-25T00:21:50;9.47;;;6.77;;
21601;SDS011;10963;50.934;4.668;2022-08-25T00:24:24;10.37;;;6.33;;
21601;SDS011;10963;50.934;4.668;2022-08-25T00:26:51;6.67;;;5.93;;
21601;SDS011;10963;50.934;4.668;2022-08-25T00:29:19;6.50;;;5.90;;
21601;SDS011;10963;50.934;4.668;2022-08-25T00:31:45;8.37;;;6.30;;
21601;SDS011;10963;50.934;4.668;2022-08-25T00:34:17;7.07;;;5.90;;
21601;SDS011;10963;50.934;4.668;2022-08-25T00:36:50;7.60;;;5.80;;
21601;SDS011;10963;50.934;4.668;2022-08-25T00:39:18;7.10;;;6.40;;
21601;SDS011;10963;50.934;4.668;2022-08-25T00:41:47;7.57;;;6.03;;
21601;SDS011;10963;50.934;4.668;2022-08-25T00:44:15;9.00;;;6.73;;
21601;SDS011;10963;50.934;4.668;2022-08-25T00:46:48;7.13;;;6.43;;
21601;SDS011;10963;50.934;4.668;2022-08-25T00:49:41;9.53;;;6.53;;
21601;SDS011;10963;50.934;4.668;2022-08-25T00:54:34;16.00;;;7.27;;
21601;SDS011;10963;50.934;4.668;2022-08-25T00:57:04;8.77;;;7.47;;
21601;SDS011;10963;50.934;4.668;2022-08-25T00:59:31;9.03;;;7.00;;
21601;SDS011;10963;50.934;4.668;2022-08-25T01:01:58;7.30;;;6.67;;
21601;SDS011;10963;50.934;4.668;2022-08-25T01:04:24;7.43;;;6.83;;
21601;SDS011;10963;50.934;4.668;2022-08-25T01:06:52;6.80;;;6.10;;
21601;SDS011;10963;50.934;4.668;2022-08-25T01:09:24;8.53;;;7.47;;
21601;SDS011;10963;50.934;4.668;2022-08-25T01:11:50;7.50;;;6.70;;
21601;SDS011;10963;50.934;4.668;2022-08-25T01:14:21;8.60;;;6.83;;
21601;SDS011;10963;50.934;4.668;2022-08-25T01:16:55;7.07;;;6.37;;
21601;SDS011;10963;50.934;4.668;2022-08-25T01:19:24;7.83;;;7.03;;
21601;SDS011;10963;50.934;4.668;2022-08-25T01:21:53;7.30;;;6.20;;
21601;SDS011;10963;50.934;4.668;2022-08-25T01:24:28;7.63;;;6.93;;
21601;SDS011;10963;50.934;4.668;2022-08-25T01:27:33;8.07;;;6.63;;
21601;SDS011;10963;50.934;4.668;2022-08-25T01:30:03;8.40;;;7.10;;
21601;SDS011;10963;50.934;4.668;2022-08-25T01:32:32;7.80;;;7.00;;
21601;SDS011;10963;50.934;4.668;2022-08-25T01:35:01;10.87;;;7.30;;
21601;SDS011;10963;50.934;4.668;2022-08-25T01:37:27;8.30;;;7.37;;
21601;SDS011;10963;50.934;4.668;2022-08-25T01:39:52;7.87;;;7.17;;
21601;SDS011;10963;50.934;4.668;2022-08-25T01:42:31;7.93;;;7.10;;
21601;SDS011;10963;50.934;4.668;2022-08-25T01:45:20;10.17;;;7.10;;
21601;SDS011;10963;50.934;4.668;2022-08-25T01:47:49;8.73;;;7.33;;
21601;SDS011;10963;50.934;4.668;2022-08-25T01:50:17;8.43;;;6.97;;
21601;SDS011;10963;50.934;4.668;2022-08-25T01:52:49;8.93;;;7.10;;
21601;SDS011;10963;50.934;4.668;2022-08-25T01:55:20;8.50;;;7.70;;
21601;SDS011;10963;50.934;4.668;2022-08-25T01:57:46;9.77;;;8.03;;
21601;SDS011;10963;50.934;4.668;2022-08-25T02:00:18;9.03;;;8.13;;
21601;SDS011;10963;50.934;4.668;2022-08-25T02:02:47;9.50;;;8.50;;
21601;SDS011;10963;50.934;4.668;2022-08-25T02:05:13;11.33;;;9.73;;
21601;SDS011;10963;50.934;4.668;2022-08-25T02:07:42;12.23;;;9.57;;
21601;SDS011;10963;50.934;4.668;2022-08-25T02:10:10;10.07;;;9.17;;
21601;SDS011;10963;50.934;4.668;2022-08-25T02:12:40;11.37;;;9.97;;
21601;SDS011;10963;50.934;4.668;2022-08-25T02:15:06;15.90;;;9.90;;
21601;SDS011;10963;50.934;4.668;2022-08-25T02:17:33;10.70;;;9.37;;
21601;SDS011;10963;50.934;4.668;2022-08-25T02:20:00;11.57;;;8.47;;
21601;SDS011;10963;50.934;4.668;2022-08-25T02:22:29;10.27;;;9.13;;
21601;SDS011;10963;50.934;4.668;2022-08-25T02:24:55;9.30;;;8.40;;
21601;SDS011;10963;50.934;4.668;2022-08-25T02:27:28;11.97;;;9.23;;
21601;SDS011;10963;50.934;4.668;2022-08-25T02:29:56;12.00;;;9.47;;
21601;SDS011;10963;50.934;4.668;2022-08-25T02:32:22;10.63;;;9.10;;
21601;SDS011;10963;50.934;4.668;2022-08-25T02:34:50;12.50;;;9.40;;
21601;SDS011;10963;50.934;4.668;2022-08-25T02:37:20;13.27;;;9.20;;
21601;SDS011;10963;50.934;4.668;2022-08-25T02:39:51;11.97;;;9.23;;
21601;SDS011;10963;50.934;4.668;2022-08-25T02:42:19;10.83;;;9.73;;
21601;SDS011;10963;50.934;4.668;2022-08-25T02:44:45;12.20;;;9.57;;
21601;SDS011;10963;50.934;4.668;2022-08-25T02:47:12;10.80;;;9.70;;
21601;SDS011;10963;50.934;4.668;2022-08-25T02:49:40;9.63;;;8.70;;
21601;SDS011;10963;50.934;4.668;2022-08-25T02:52:06;12.93;;;8.67;;
21601;SDS011;10963;50.934;4.668;2022-08-25T02:54:33;13.83;;;9.60;;
21601;SDS011;10963;50.934;4.668;2022-08-25T02:57:01;10.03;;;9.00;;
21601;SDS011;10963;50.934;4.668;2022-08-25T02:59:29;11.37;;;9.93;;
21601;SDS011;10963;50.934;4.668;2022-08-25T03:01:55;11.13;;;9.17;;
21601;SDS011;10963;50.934;4.668;2022-08-25T03:04:23;12.37;;;10.00;;
21601;SDS011;10963;50.934;4.668;2022-08-25T03:06:49;14.63;;;10.23;;
21601;SDS011;10963;50.934;4.668;2022-08-25T03:09:15;12.40;;;9.40;;
21601;SDS011;10963;50.934;4.668;2022-08-25T03:11:46;12.07;;;10.40;;
21601;SDS011;10963;50.934;4.668;2022-08-25T03:14:12;11.23;;;10.13;;
21601;SDS011;10963;50.934;4.668;2022-08-25T03:16:42;12.57;;;10.93;;
21601;SDS011;10963;50.934;4.668;2022-08-25T03:19:10;14.83;;;10.57;;
21601;SDS011;10963;50.934;4.668;2022-08-25T03:21:39;11.17;;;9.83;;
21601;SDS011;10963;50.934;4.668;2022-08-25T03:24:04;12.03;;;10.40;;
21601;SDS011;10963;50.934;4.668;2022-08-25T03:26:38;11.77;;;10.60;;
21601;SDS011;10963;50.934;4.668;2022-08-25T03:29:24;12.93;;;9.67;;
21601;SDS011;10963;50.934;4.668;2022-08-25T03:31:58;12.07;;;10.57;;
21601;SDS011;10963;50.934;4.668;2022-08-25T03:34:25;11.07;;;9.67;;
21601;SDS011;10963;50.934;4.668;2022-08-25T03:36:56;15.87;;;10.53;;
21601;SDS011;10963;50.934;4.668;2022-08-25T03:39:27;13.33;;;10.37;;
21601;SDS011;10963;50.934;4.668;2022-08-25T03:41:58;13.10;;;9.73;;
21601;SDS011;10963;50.934;4.668;2022-08-25T03:44:26;11.97;;;9.37;;
21601;SDS011;10963;50.934;4.668;2022-08-25T03:46:55;12.67;;;9.77;;
21601;SDS011;10963;50.934;4.668;2022-08-25T03:49:22;11.23;;;9.53;;
21601;SDS011;10963;50.934;4.668;2022-08-25T03:51:52;10.53;;;9.30;;
21601;SDS011;10963;50.934;4.668;2022-08-25T03:54:21;10.57;;;9.53;;
21601;SDS011;10963;50.934;4.668;2022-08-25T03:56:53;13.30;;;9.17;;
21601;SDS011;10963;50.934;4.668;2022-08-25T03:59:19;10.77;;;9.27;;
21601;SDS011;10963;50.934;4.668;2022-08-25T04:01:48;15.07;;;9.00;;
21601;SDS011;10963;50.934;4.668;2022-08-25T04:04:16;12.53;;;9.40;;
21601;SDS011;10963;50.934;4.668;2022-08-25T04:06:45;13.13;;;8.90;;
21601;SDS011;10963;50.934;4.668;2022-08-25T04:09:11;16.33;;;8.83;;
21601;SDS011;10963;50.934;4.668;2022-08-25T04:11:40;10.87;;;9.20;;
21601;SDS011;10963;50.934;4.668;2022-08-25T04:14:08;10.60;;;9.13;;
21601;SDS011;10963;50.934;4.668;2022-08-25T04:16:37;10.20;;;9.17;;
21601;SDS011;10963;50.934;4.668;2022-08-25T04:19:04;10.13;;;8.97;;
21601;SDS011;10963;50.934;4.668;2022-08-25T04:21:33;11.23;;;8.73;;
21601;SDS011;10963;50.934;4.668;2022-08-25T04:24:00;11.20;;;9.97;;
21601;SDS011;10963;50.934;4.668;2022-08-25T04:26:30;11.27;;;9.50;;
21601;SDS011;10963;50.934;4.668;2022-08-25T04:29:04;10.43;;;9.43;;
21601;SDS011;10963;50.934;4.668;2022-08-25T04:31:33;12.53;;;9.57;;
21601;SDS011;10963;50.934;4.668;2022-08-25T04:34:03;12.60;;;9.10;;
21601;SDS011;10963;50.934;4.668;2022-08-25T04:36:32;10.73;;;9.63;;
21601;SDS011;10963;50.934;4.668;2022-08-25T04:39:03;13.10;;;9.40;;
21601;SDS011;10963;50.934;4.668;2022-08-25T04:41:29;11.63;;;9.27;;
21601;SDS011;10963;50.934;4.668;2022-08-25T04:43:55;13.03;;;9.23;;
21601;SDS011;10963;50.934;4.668;2022-08-25T04:46:27;13.67;;;9.20;;
21601;SDS011;10963;50.934;4.668;2022-08-25T04:48:55;11.53;;;9.43;;
21601;SDS011;10963;50.934;4.668;2022-08-25T04:51:23;12.60;;;9.27;;
21601;SDS011;10963;50.934;4.668;2022-08-25T04:53:52;15.93;;;9.37;;
21601;SDS011;10963;50.934;4.668;2022-08-25T04:56:25;14.63;;;9.37;;
21601;SDS011;10963;50.934;4.668;2022-08-25T04:58:55;11.17;;;9.07;;
21601;SDS011;10963;50.934;4.668;2022-08-25T05:01:21;10.33;;;8.33;;
21601;SDS011;10963;50.934;4.668;2022-08-25T05:03:55;20.30;;;8.70;;
21601;SDS011;10963;50.934;4.668;2022-08-25T05:06:28;9.30;;;8.30;;
21601;SDS011;10963;50.934;4.668;2022-08-25T05:08:57;10.93;;;7.93;;
21601;SDS011;10963;50.934;4.668;2022-08-25T05:11:23;12.47;;;8.63;;
21601;SDS011;10963;50.934;4.668;2022-08-25T05:13:50;10.27;;;7.90;;
21601;SDS011;10963;50.934;4.668;2022-08-25T05:16:18;10.63;;;8.40;;
21601;SDS011;10963;50.934;4.668;2022-08-25T05:18:45;9.10;;;8.00;;
21601;SDS011;10963;50.934;4.668;2022-08-25T05:21:12;9.83;;;7.87;;
21601;SDS011;10963;50.934;4.668;2022-08-25T05:23:43;10.73;;;8.33;;
21601;SDS011;10963;50.934;4.668;2022-08-25T05:26:11;12.57;;;8.00;;
21601;SDS011;10963;50.934;4.668;2022-08-25T05:28:44;12.23;;;8.23;;
21601;SDS011;10963;50.934;4.668;2022-08-25T05:31:17;10.23;;;7.90;;
21601;SDS011;10963;50.934;4.668;2022-08-25T05:33:46;19.07;;;9.07;;
21601;SDS011;10963;50.934;4.668;2022-08-25T05:36:12;14.60;;;8.37;;
21601;SDS011;10963;50.934;4.668;2022-08-25T05:38:42;9.87;;;7.60;;
21601;SDS011;10963;50.934;4.668;2022-08-25T05:41:09;10.40;;;7.57;;
21601;SDS011;10963;50.934;4.668;2022-08-25T05:43:37;10.13;;;7.47;;
21601;SDS011;10963;50.934;4.668;2022-08-25T05:46:05;9.93;;;7.30;;
21601;SDS011;10963;50.934;4.668;2022-08-25T05:48:33;11.00;;;7.87;;
21601;SDS011;10963;50.934;4.668;2022-08-25T05:51:00;9.57;;;7.07;;
21601;SDS011;10963;50.934;4.668;2022-08-25T05:53:30;8.57;;;7.37;;
21601;SDS011;10963;50.934;4.668;2022-08-25T05:55:57;21.17;;;7.77;;
21601;SDS011;10963;50.934;4.668;2022-08-25T05:58:24;10.90;;;7.30;;
21601;SDS011;10963;50.934;4.668;2022-08-25T06:00:52;11.07;;;6.83;;
21601;SDS011;10963;50.934;4.668;2022-08-25T06:03:18;10.70;;;7.23;;
21601;SDS011;10963;50.934;4.668;2022-08-25T06:05:49;13.03;;;7.17;;
21601;SDS011;10963;50.934;4.668;2022-08-25T06:08:17;8.73;;;7.03;;
21601;SDS011;10963;50.934;4.668;2022-08-25T06:10:51;7.77;;;6.50;;
21601;SDS011;10963;50.934;4.668;2022-08-25T06:13:17;10.00;;;6.70;;
21601;SDS011;10963;50.934;4.668;2022-08-25T06:15:42;10.77;;;6.80;;
21601;SDS011;10963;50.934;4.668;2022-08-25T06:18:10;10.77;;;6.60;;
21601;SDS011;10963;50.934;4.668;2022-08-25T06:20:40;12.33;;;6.57;;
21601;SDS011;10963;50.934;4.668;2022-08-25T06:23:06;10.33;;;6.50;;
21601;SDS011;10963;50.934;4.668;2022-08-25T06:25:34;9.10;;;6.33;;
21601;SDS011;10963;50.934;4.668;2022-08-25T06:28:04;7.90;;;6.17;;
21601;SDS011;10963;50.934;4.668;2022-08-25T06:30:29;8.03;;;6.50;;
21601;SDS011;10963;50.934;4.668;2022-08-25T06:32:55;10.47;;;6.53;;
21601;SDS011;10963;50.934;4.668;2022-08-25T06:35:23;8.90;;;6.43;;
21601;SDS011;10963;50.934;4.668;2022-08-25T06:37:49;9.17;;;6.07;;
21601;SDS011;10963;50.934;4.668;2022-08-25T06:40:17;9.03;;;6.47;;
21601;SDS011;10963;50.934;4.668;2022-08-25T06:42:48;10.07;;;6.28;;
21601;SDS011;10963;50.934;4.668;2022-08-25T06:45:13;13.52;;;6.50;;
21601;SDS011;10963;50.934;4.668;2022-08-25T06:47:42;6.95;;;5.80;;
21601;SDS011;10963;50.934;4.668;2022-08-25T06:50:10;6.88;;;5.65;;
21601;SDS011;10963;50.934;4.668;2022-08-25T06:52:36;9.85;;;5.38;;
21601;SDS011;10963;50.934;4.668;2022-08-25T06:55:04;7.72;;;5.22;;
21601;SDS011;10963;50.934;4.668;2022-08-25T06:57:33;9.00;;;5.65;;
21601;SDS011;10963;50.934;4.668;2022-08-25T07:00:00;10.18;;;5.68;;
21601;SDS011;10963;50.934;4.668;2022-08-25T07:02:27;10.35;;;5.13;;
21601;SDS011;10963;50.934;4.668;2022-08-25T07:04:53;7.43;;;5.47;;
21601;SDS011;10963;50.934;4.668;2022-08-25T07:07:19;17.67;;;6.13;;
21601;SDS011;10963;50.934;4.668;2022-08-25T07:09:45;22.58;;;6.00;;
21601;SDS011;10963;50.934;4.668;2022-08-25T07:12:11;10.33;;;5.33;;
21601;SDS011;10963;50.934;4.668;2022-08-25T07:14:39;9.70;;;5.53;;
21601;SDS011;10963;50.934;4.668;2022-08-25T07:17:09;17.30;;;5.75;;
21601;SDS011;10963;50.934;4.668;2022-08-25T07:19:38;6.22;;;5.63;;
21601;SDS011;10963;50.934;4.668;2022-08-25T07:22:03;8.23;;;5.40;;
21601;SDS011;10963;50.934;4.668;2022-08-25T07:24:29;12.82;;;5.30;;
21601;SDS011;10963;50.934;4.668;2022-08-25T07:26:58;6.50;;;4.88;;
21601;SDS011;10963;50.934;4.668;2022-08-25T07:29:26;9.88;;;5.53;;
21601;SDS011;10963;50.934;4.668;2022-08-25T07:31:53;11.05;;;5.13;;
21601;SDS011;10963;50.934;4.668;2022-08-25T07:34:19;9.68;;;5.15;;
21601;SDS011;10963;50.934;4.668;2022-08-25T07:37:03;10.35;;;5.20;;
21601;SDS011;10963;50.934;4.668;2022-08-25T07:39:31;7.30;;;5.20;;
21601;SDS011;10963;50.934;4.668;2022-08-25T07:41:57;21.88;;;5.82;;
21601;SDS011;10963;50.934;4.668;2022-08-25T07:44:30;11.43;;;5.15;;
21601;SDS011;10963;50.934;4.668;2022-08-25T07:46:58;16.88;;;5.82;;
21601;SDS011;10963;50.934;4.668;2022-08-25T07:49:25;12.80;;;5.75;;
21601;SDS011;10963;50.934;4.668;2022-08-25T07:51:53;9.50;;;5.15;;
21601;SDS011;10963;50.934;4.668;2022-08-25T07:54:20;8.40;;;5.13;;
21601;SDS011;10963;50.934;4.668;2022-08-25T07:56:49;9.30;;;4.65;;
21601;SDS011;10963;50.934;4.668;2022-08-25T07:59:19;8.18;;;5.07;;
21601;SDS011;10963;50.934;4.668;2022-08-25T08:01:50;8.10;;;4.30;;
21601;SDS011;10963;50.934;4.668;2022-08-25T08:04:15;13.23;;;4.75;;
21601;SDS011;10963;50.934;4.668;2022-08-25T08:06:41;6.32;;;4.15;;
21601;SDS011;10963;50.934;4.668;2022-08-25T08:09:07;8.95;;;4.35;;
21601;SDS011;10963;50.934;4.668;2022-08-25T08:11:33;8.77;;;4.25;;
21601;SDS011;10963;50.934;4.668;2022-08-25T08:14:05;5.93;;;4.20;;
21601;SDS011;10963;50.934;4.668;2022-08-25T08:16:33;10.30;;;4.95;;
21601;SDS011;10963;50.934;4.668;2022-08-25T08:18:59;6.95;;;4.90;;
21601;SDS011;10963;50.934;4.668;2022-08-25T08:21:29;8.90;;;3.95;;
21601;SDS011;10963;50.934;4.668;2022-08-25T08:23:59;11.88;;;4.60;;
21601;SDS011;10963;50.934;4.668;2022-08-25T08:26:26;6.65;;;4.13;;
21601;SDS011;10963;50.934;4.668;2022-08-25T08:28:57;9.30;;;4.13;;
21601;SDS011;10963;50.934;4.668;2022-08-25T08:31:24;10.13;;;4.13;;
21601;SDS011;10963;50.934;4.668;2022-08-25T08:33:55;8.60;;;4.30;;
21601;SDS011;10963;50.934;4.668;2022-08-25T08:36:22;7.47;;;4.70;;
21601;SDS011;10963;50.934;4.668;2022-08-25T08:38:52;11.48;;;4.40;;
21601;SDS011;10963;50.934;4.668;2022-08-25T08:46:47;8.20;;;4.05;;
21601;SDS011;10963;50.934;4.668;2022-08-25T08:52:13;7.43;;;3.90;;
21601;SDS011;10963;50.934;4.668;2022-08-25T08:54:42;7.65;;;4.07;;
21601;SDS011;10963;50.934;4.668;2022-08-25T08:57:12;6.82;;;4.55;;
21601;SDS011;10963;50.934;4.668;2022-08-25T08:59:47;9.10;;;4.93;;
21601;SDS011;10963;50.934;4.668;2022-08-25T09:05:08;6.30;;;4.78;;
21601;SDS011;10963;50.934;4.668;2022-08-25T09:10:33;7.43;;;3.92;;
21601;SDS011;10963;50.934;4.668;2022-08-25T09:16:19;4.95;;;3.78;;
21601;SDS011;10963;50.934;4.668;2022-08-25T09:28:30;6.65;;;3.58;;
21601;SDS011;10963;50.934;4.668;2022-08-25T09:31:23;15.35;;;4.15;;
21601;SDS011;10963;50.934;4.668;2022-08-25T09:33:56;8.20;;;3.75;;
21601;SDS011;10963;50.934;4.668;2022-08-25T09:36:25;7.32;;;3.95;;
21601;SDS011;10963;50.934;4.668;2022-08-25T09:38:53;9.30;;;3.90;;
21601;SDS011;10963;50.934;4.668;2022-08-25T09:46:54;8.80;;;3.83;;
21601;SDS011;10963;50.934;4.668;2022-08-25T09:49:41;5.90;;;4.20;;
21601;SDS011;10963;50.934;4.668;2022-08-25T09:52:29;4.85;;;3.53;;
21601;SDS011;10963;50.934;4.668;2022-08-25T09:55:01;10.82;;;4.05;;
21601;SDS011;10963;50.934;4.668;2022-08-25T09:57:55;5.13;;;3.92;;
21601;SDS011;10963;50.934;4.668;2022-08-25T10:00:30;5.40;;;3.47;;
21601;SDS011;10963;50.934;4.668;2022-08-25T10:03:20;4.72;;;3.40;;
21601;SDS011;10963;50.934;4.668;2022-08-25T10:08:35;6.43;;;3.60;;
21601;SDS011;10963;50.934;4.668;2022-08-25T10:11:07;6.32;;;3.92;;
21601;SDS011;10963;50.934;4.668;2022-08-25T10:14:02;6.38;;;3.25;;
21601;SDS011;10963;50.934;4.668;2022-08-25T10:16:34;4.95;;;3.33;;
21601;SDS011;10963;50.934;4.668;2022-08-25T10:19:04;7.38;;;3.38;;
21601;SDS011;10963;50.934;4.668;2022-08-25T10:22:01;5.25;;;3.50;;
21601;SDS011;10963;50.934;4.668;2022-08-25T10:24:29;5.85;;;4.05;;
21601;SDS011;10963;50.934;4.668;2022-08-25T10:29:50;4.72;;;3.72;;
21601;SDS011;10963;50.934;4.668;2022-08-25T10:35:37;6.13;;;3.08;;
21601;SDS011;10963;50.934;4.668;2022-08-25T10:40:57;10.60;;;3.80;;
21601;SDS011;10963;50.934;4.668;2022-08-25T10:43:48;3.72;;;3.30;;
21601;SDS011;10963;50.934;4.668;2022-08-25T10:46:55;5.53;;;3.00;;
21601;SDS011;10963;50.934;4.668;2022-08-25T10:49:44;3.88;;;3.45;;
21601;SDS011;10963;50.934;4.668;2022-08-25T10:53:03;4.43;;;2.95;;
21601;SDS011;10963;50.934;4.668;2022-08-25T11:00:20;4.00;;;2.95;;
21601;SDS011;10963;50.934;4.668;2022-08-25T11:11:27;3.53;;;3.22;;
21601;SDS011;10963;50.934;4.668;2022-08-25T11:14:15;5.85;;;3.30;;
21601;SDS011;10963;50.934;4.668;2022-08-25T11:16:52;5.25;;;3.20;;
21601;SDS011;10963;50.934;4.668;2022-08-25T11:19:35;4.53;;;2.85;;
21601;SDS011;10963;50.934;4.668;2022-08-25T11:22:21;3.00;;;2.80;;
21601;SDS011;10963;50.934;4.668;2022-08-25T11:30:27;7.97;;;3.20;;
21601;SDS011;10963;50.934;4.668;2022-08-25T11:32:56;4.07;;;3.35;;
21601;SDS011;10963;50.934;4.668;2022-08-25T11:55:58;7.18;;;3.28;;
21601;SDS011;10963;50.934;4.668;2022-08-25T12:10:20;4.70;;;3.13;;
21601;SDS011;10963;50.934;4.668;2022-08-25T12:15:26;4.50;;;3.10;;
21601;SDS011;10963;50.934;4.668;2022-08-25T12:18:09;8.45;;;3.55;;
21601;SDS011;10963;50.934;4.668;2022-08-25T12:23:30;4.00;;;3.53;;
21601;SDS011;10963;50.934;4.668;2022-08-25T12:32:18;5.47;;;3.50;;
21601;SDS011;10963;50.934;4.668;2022-08-25T12:38:01;4.78;;;3.00;;
21601;SDS011;10963;50.934;4.668;2022-08-25T12:43:05;3.13;;;2.83;;
21601;SDS011;10963;50.934;4.668;2022-08-25T12:45:49;3.40;;;3.10;;
21601;SDS011;10963;50.934;4.668;2022-08-25T12:53:37;3.30;;;3.00;;
21601;SDS011;10963;50.934;4.668;2022-08-25T13:10:14;9.05;;;3.30;;
21601;SDS011;10963;50.934;4.668;2022-08-25T13:15:25;6.60;;;3.25;;
21601;SDS011;10963;50.934;4.668;2022-08-25T13:21:00;4.20;;;3.45;;
21601;SDS011;10963;50.934;4.668;2022-08-25T13:23:27;5.18;;;3.15;;
21601;SDS011;10963;50.934;4.668;2022-08-25T13:26:00;5.70;;;3.83;;
21601;SDS011;10963;50.934;4.668;2022-08-25T13:28:32;6.18;;;3.10;;
21601;SDS011;10963;50.934;4.668;2022-08-25T13:31:14;7.88;;;3.33;;
21601;SDS011;10963;50.934;4.668;2022-08-25T13:33:56;5.95;;;3.65;;
21601;SDS011;10963;50.934;4.668;2022-08-25T13:36:27;5.30;;;3.30;;
21601;SDS011;10963;50.934;4.668;2022-08-25T13:39:14;7.18;;;3.63;;
21601;SDS011;10963;50.934;4.668;2022-08-25T13:41:48;3.25;;;2.95;;
21601;SDS011;10963;50.934;4.668;2022-08-25T13:44:19;5.95;;;3.30;;
21601;SDS011;10963;50.934;4.668;2022-08-25T13:47:09;4.88;;;3.53;;
21601;SDS011;10963;50.934;4.668;2022-08-25T13:49:36;5.28;;;3.63;;
21601;SDS011;10963;50.934;4.668;2022-08-25T13:52:14;3.60;;;3.30;;
21601;SDS011;10963;50.934;4.668;2022-08-25T13:54:48;3.30;;;3.00;;
21601;SDS011;10963;50.934;4.668;2022-08-25T13:57:26;6.88;;;3.20;;
21601;SDS011;10963;50.934;4.668;2022-08-25T14:00:13;8.23;;;3.08;;
21601;SDS011;10963;50.934;4.668;2022-08-25T14:02:58;5.78;;;3.05;;
21601;SDS011;10963;50.934;4.668;2022-08-25T14:07:59;4.63;;;3.25;;
21601;SDS011;10963;50.934;4.668;2022-08-25T14:16:12;8.73;;;3.70;;
21601;SDS011;10963;50.934;4.668;2022-08-25T14:18:49;4.13;;;3.65;;
21601;SDS011;10963;50.934;4.668;2022-08-25T14:21:21;5.43;;;3.20;;
21601;SDS011;10963;50.934;4.668;2022-08-25T14:23:53;5.38;;;3.38;;
21601;SDS011;10963;50.934;4.668;2022-08-25T14:26:20;6.82;;;3.22;;
21601;SDS011;10963;50.934;4.668;2022-08-25T14:28:50;3.88;;;3.58;;
21601;SDS011;10963;50.934;4.668;2022-08-25T14:31:25;5.55;;;3.33;;
21601;SDS011;10963;50.934;4.668;2022-08-25T14:33:54;3.90;;;3.50;;
21601;SDS011;10963;50.934;4.668;2022-08-25T14:36:23;6.90;;;4.35;;
21601;SDS011;10963;50.934;4.668;2022-08-25T14:38:55;5.03;;;3.08;;
21601;SDS011;10963;50.934;4.668;2022-08-25T14:41:22;3.97;;;3.60;;
21601;SDS011;10963;50.934;4.668;2022-08-25T14:43:49;4.60;;;3.17;;
21601;SDS011;10963;50.934;4.668;2022-08-25T14:46:17;4.18;;;3.65;;
21601;SDS011;10963;50.934;4.668;2022-08-25T14:48:48;4.18;;;3.55;;
21601;SDS011;10963;50.934;4.668;2022-08-25T14:51:22;12.48;;;4.00;;
21601;SDS011;10963;50.934;4.668;2022-08-25T14:53:49;7.72;;;4.82;;
21601;SDS011;10963;50.934;4.668;2022-08-25T14:56:16;11.23;;;5.25;;
21601;SDS011;10963;50.934;4.668;2022-08-25T14:58:47;9.77;;;5.55;;
21601;SDS011;10963;50.934;4.668;2022-08-25T15:01:14;6.82;;;5.38;;
21601;SDS011;10963;50.934;4.668;2022-08-25T15:03:45;10.80;;;5.65;;
21601;SDS011;10963;50.934;4.668;2022-08-25T15:06:15;6.55;;;5.50;;
21601;SDS011;10963;50.934;4.668;2022-08-25T15:08:44;14.80;;;6.25;;
21601;SDS011;10963;50.934;4.668;2022-08-25T15:11:30;7.10;;;5.70;;
21601;SDS011;10963;50.934;4.668;2022-08-25T15:13:57;10.20;;;5.97;;
21601;SDS011;10963;50.934;4.668;2022-08-25T15:16:47;9.15;;;6.30;;
21601;SDS011;10963;50.934;4.668;2022-08-25T15:19:17;13.70;;;5.97;;
21601;SDS011;10963;50.934;4.668;2022-08-25T15:21:44;14.02;;;6.20;;
21601;SDS011;10963;50.934;4.668;2022-08-25T15:24:11;10.38;;;6.28;;
21601;SDS011;10963;50.934;4.668;2022-08-25T15:26:56;16.38;;;6.32;;
21601;SDS011;10963;50.934;4.668;2022-08-25T15:29:24;6.95;;;6.00;;
21601;SDS011;10963;50.934;4.668;2022-08-25T15:31:54;12.02;;;5.85;;
21601;SDS011;10963;50.934;4.668;2022-08-25T15:34:25;8.15;;;5.63;;
21601;SDS011;10963;50.934;4.668;2022-08-25T15:36:50;10.82;;;5.75;;
21601;SDS011;10963;50.934;4.668;2022-08-25T15:39:16;11.77;;;6.18;;
21601;SDS011;10963;50.934;4.668;2022-08-25T15:41:45;8.10;;;6.25;;
21601;SDS011;10963;50.934;4.668;2022-08-25T15:44:13;12.63;;;6.40;;
21601;SDS011;10963;50.934;4.668;2022-08-25T15:46:43;11.13;;;6.03;;
21601;SDS011;10963;50.934;4.668;2022-08-25T15:49:13;14.77;;;6.65;;
21601;SDS011;10963;50.934;4.668;2022-08-25T15:51:39;7.18;;;5.47;;
21601;SDS011;10963;50.934;4.668;2022-08-25T15:54:08;13.20;;;6.15;;
21601;SDS011;10963;50.934;4.668;2022-08-25T15:56:33;7.53;;;5.65;;
21601;SDS011;10963;50.934;4.668;2022-08-25T15:59:02;10.52;;;5.68;;
21601;SDS011;10963;50.934;4.668;2022-08-25T16:01:33;9.20;;;5.47;;
21601;SDS011;10963;50.934;4.668;2022-08-25T16:04:03;18.08;;;8.45;;
21601;SDS011;10963;50.934;4.668;2022-08-25T16:06:32;13.60;;;9.68;;
21601;SDS011;10963;50.934;4.668;2022-08-25T16:09:05;14.80;;;9.80;;
21601;SDS011;10963;50.934;4.668;2022-08-25T16:11:34;15.88;;;10.63;;
21601;SDS011;10963;50.934;4.668;2022-08-25T16:14:04;13.10;;;10.50;;
21601;SDS011;10963;50.934;4.668;2022-08-25T16:16:33;12.25;;;8.52;;
21601;SDS011;10963;50.934;4.668;2022-08-25T16:19:02;19.80;;;8.57;;
21601;SDS011;10963;50.934;4.668;2022-08-25T16:21:32;11.82;;;8.85;;
21601;SDS011;10963;50.934;4.668;2022-08-25T16:24:02;10.88;;;9.50;;
21601;SDS011;10963;50.934;4.668;2022-08-25T16:26:32;11.98;;;8.82;;
21601;SDS011;10963;50.934;4.668;2022-08-25T16:28:59;11.55;;;8.27;;
21601;SDS011;10963;50.934;4.668;2022-08-25T16:31:28;12.90;;;9.48;;
21601;SDS011;10963;50.934;4.668;2022-08-25T16:33:54;11.50;;;8.90;;
21601;SDS011;10963;50.934;4.668;2022-08-25T16:36:23;14.10;;;9.25;;
21601;SDS011;10963;50.934;4.668;2022-08-25T16:38:54;9.90;;;8.90;;
21601;SDS011;10963;50.934;4.668;2022-08-25T16:41:26;15.95;;;10.05;;
21601;SDS011;10963;50.934;4.668;2022-08-25T16:44:03;12.25;;;8.63;;
21601;SDS011;10963;50.934;4.668;2022-08-25T16:46:33;12.18;;;8.88;;
21601;SDS011;10963;50.934;4.668;2022-08-25T16:49:05;13.75;;;8.13;;
21601;SDS011;10963;50.934;4.668;2022-08-25T16:51:33;12.90;;;7.88;;
21601;SDS011;10963;50.934;4.668;2022-08-25T16:54:05;13.70;;;8.77;;
21601;SDS011;10963;50.934;4.668;2022-08-25T16:56:50;11.38;;;9.32;;
21601;SDS011;10963;50.934;4.668;2022-08-25T16:59:16;14.45;;;9.10;;
21601;SDS011;10963;50.934;4.668;2022-08-25T17:01:42;14.30;;;9.13;;
21601;SDS011;10963;50.934;4.668;2022-08-25T17:04:08;12.95;;;9.68;;
21601;SDS011;10963;50.934;4.668;2022-08-25T17:06:35;16.02;;;8.77;;
21601;SDS011;10963;50.934;4.668;2022-08-25T17:09:08;11.55;;;9.05;;
21601;SDS011;10963;50.934;4.668;2022-08-25T17:11:42;14.68;;;8.85;;
21601;SDS011;10963;50.934;4.668;2022-08-25T17:14:16;11.15;;;9.10;;
21601;SDS011;10963;50.934;4.668;2022-08-25T17:16:45;14.40;;;9.75;;
21601;SDS011;10963;50.934;4.668;2022-08-25T17:19:12;10.80;;;9.70;;
21601;SDS011;10963;50.934;4.668;2022-08-25T17:21:40;13.48;;;10.27;;
21601;SDS011;10963;50.934;4.668;2022-08-25T17:24:09;16.35;;;10.68;;
21601;SDS011;10963;50.934;4.668;2022-08-25T17:26:40;13.63;;;10.30;;
21601;SDS011;10963;50.934;4.668;2022-08-25T17:29:12;16.05;;;12.48;;
21601;SDS011;10963;50.934;4.668;2022-08-25T17:31:40;17.88;;;12.50;;